sensor_id;sensor_type;location;lat;lon;timestamp;P1;durP1;ratioP1;P2;durP2;ratioP2
2720;SDS011;1368;49.484;11.112;2022-09-09T00:00:38;6.73;;;3.83;;
2720;SDS011;1368;49.484;11.112;2022-09-09T00:03:14;7.90;;;4.83;;
2720;SDS011;1368;49.484;11.112;2022-09-09T00:06:08;11.53;;;4.37;;
2720;SDS011;1368;49.484;11.112;2022-09-09T00:12:25;11.10;;;4.00;;
2720;SDS011;1368;49.484;11.112;2022-09-09T00:14:38;10.47;;;4.87;;
2720;SDS011;1368;49.484;11.112;2022-09-09T00:17:09;6.87;;;4.17;;
2720;SDS011;1368;49.484;11.112;2022-09-09T00:19:44;9.33;;;4.67;;
2720;SDS011;1368;49.484;11.112;2022-09-09T00:22:34;8.80;;;4.67;;
2720;SDS011;1368;49.484;11.112;2022-09-09T00:28:09;5.47;;;4.67;;
2720;SDS011;1368;49.484;11.112;2022-09-09T00:30:42;4.83;;;3.93;;
2720;SDS011;1368;49.484;11.112;2022-09-09T00:33:10;12.53;;;5.00;;
2720;SDS011;1368;49.484;11.112;2022-09-09T00:35:44;6.87;;;4.33;;
2720;SDS011;1368;49.484;11.112;2022-09-09T00:38:17;9.57;;;4.73;;
2720;SDS011;1368;49.484;11.112;2022-09-09T00:40:45;6.60;;;4.10;;
2720;SDS011;1368;49.484;11.112;2022-09-09T00:43:23;6.60;;;4.63;;
2720;SDS011;1368;49.484;11.112;2022-09-09T00:46:00;7.80;;;4.83;;
2720;SDS011;1368;49.484;11.112;2022-09-09T00:48:42;8.83;;;4.30;;
2720;SDS011;1368;49.484;11.112;2022-09-09T00:51:30;9.47;;;5.93;;
2720;SDS011;1368;49.484;11.112;2022-09-09T01:05:19;8.00;;;4.70;;
2720;SDS011;1368;49.484;11.112;2022-09-09T01:07:55;6.53;;;5.10;;
2720;SDS011;1368;49.484;11.112;2022-09-09T01:10:47;9.40;;;6.27;;
2720;SDS011;1368;49.484;11.112;2022-09-09T01:13:28;8.23;;;5.43;;
2720;SDS011;1368;49.484;11.112;2022-09-09T01:15:59;10.00;;;5.53;;
2720;SDS011;1368;49.484;11.112;2022-09-09T01:18:32;7.13;;;5.43;;
2720;SDS011;1368;49.484;11.112;2022-09-09T01:21:29;7.33;;;4.73;;
2720;SDS011;1368;49.484;11.112;2022-09-09T01:24:29;5.50;;;4.80;;
2720;SDS011;1368;49.484;11.112;2022-09-09T01:27:04;8.87;;;5.40;;
2720;SDS011;1368;49.484;11.112;2022-09-09T01:29:31;6.20;;;4.37;;
2720;SDS011;1368;49.484;11.112;2022-09-09T01:31:58;7.77;;;4.70;;
2720;SDS011;1368;49.484;11.112;2022-09-09T01:34:30;7.97;;;5.60;;
2720;SDS011;1368;49.484;11.112;2022-09-09T01:37:02;7.30;;;4.83;;
2720;SDS011;1368;49.484;11.112;2022-09-09T01:39:31;6.93;;;4.90;;
2720;SDS011;1368;49.484;11.112;2022-09-09T01:41:58;9.70;;;5.10;;
2720;SDS011;1368;49.484;11.112;2022-09-09T01:44:24;5.27;;;4.77;;
2720;SDS011;1368;49.484;11.112;2022-09-09T01:46:51;11.57;;;5.80;;
2720;SDS011;1368;49.484;11.112;2022-09-09T01:49:17;7.27;;;4.67;;
2720;SDS011;1368;49.484;11.112;2022-09-09T01:51:43;7.80;;;6.17;;
2720;SDS011;1368;49.484;11.112;2022-09-09T01:54:14;11.37;;;5.30;;
2720;SDS011;1368;49.484;11.112;2022-09-09T01:56:45;9.63;;;5.53;;
2720;SDS011;1368;49.484;11.112;2022-09-09T01:59:25;13.97;;;5.70;;
2720;SDS011;1368;49.484;11.112;2022-09-09T02:02:10;9.33;;;5.50;;
2720;SDS011;1368;49.484;11.112;2022-09-09T02:04:41;10.63;;;5.43;;
2720;SDS011;1368;49.484;11.112;2022-09-09T02:07:20;5.60;;;4.77;;
2720;SDS011;1368;49.484;11.112;2022-09-09T02:09:57;9.80;;;5.30;;
2720;SDS011;1368;49.484;11.112;2022-09-09T02:12:30;5.97;;;4.80;;
2720;SDS011;1368;49.484;11.112;2022-09-09T02:14:59;6.17;;;4.70;;
2720;SDS011;1368;49.484;11.112;2022-09-09T02:17:33;11.80;;;4.90;;
2720;SDS011;1368;49.484;11.112;2022-09-09T02:20:07;7.17;;;4.13;;
2720;SDS011;1368;49.484;11.112;2022-09-09T02:22:35;7.73;;;5.07;;
2720;SDS011;1368;49.484;11.112;2022-09-09T02:25:04;8.03;;;4.27;;
2720;SDS011;1368;49.484;11.112;2022-09-09T02:27:33;8.43;;;4.47;;
2720;SDS011;1368;49.484;11.112;2022-09-09T02:29:59;6.50;;;4.13;;
2720;SDS011;1368;49.484;11.112;2022-09-09T02:32:27;11.50;;;5.30;;
2720;SDS011;1368;49.484;11.112;2022-09-09T02:35:01;4.90;;;4.27;;
2720;SDS011;1368;49.484;11.112;2022-09-09T02:37:31;6.80;;;5.30;;
2720;SDS011;1368;49.484;11.112;2022-09-09T02:40:02;5.90;;;4.20;;
2720;SDS011;1368;49.484;11.112;2022-09-09T02:42:29;11.17;;;4.53;;
2720;SDS011;1368;49.484;11.112;2022-09-09T02:44:55;8.57;;;4.33;;
2720;SDS011;1368;49.484;11.112;2022-09-09T02:47:24;7.90;;;3.80;;
2720;SDS011;1368;49.484;11.112;2022-09-09T02:49:57;5.30;;;4.50;;
2720;SDS011;1368;49.484;11.112;2022-09-09T02:58:15;7.97;;;4.13;;
2720;SDS011;1368;49.484;11.112;2022-09-09T03:00:43;7.13;;;4.00;;
2720;SDS011;1368;49.484;11.112;2022-09-09T03:03:13;6.43;;;3.63;;
2720;SDS011;1368;49.484;11.112;2022-09-09T03:05:41;7.40;;;3.90;;
2720;SDS011;1368;49.484;11.112;2022-09-09T03:08:06;7.00;;;4.27;;
2720;SDS011;1368;49.484;11.112;2022-09-09T03:10:32;7.00;;;4.03;;
2720;SDS011;1368;49.484;11.112;2022-09-09T03:12:58;6.00;;;4.37;;
2720;SDS011;1368;49.484;11.112;2022-09-09T03:15:24;15.07;;;4.60;;
2720;SDS011;1368;49.484;11.112;2022-09-09T03:17:53;5.37;;;3.60;;
2720;SDS011;1368;49.484;11.112;2022-09-09T03:20:20;10.90;;;4.20;;
2720;SDS011;1368;49.484;11.112;2022-09-09T03:22:46;9.07;;;4.43;;
2720;SDS011;1368;49.484;11.112;2022-09-09T03:25:11;8.07;;;4.70;;
2720;SDS011;1368;49.484;11.112;2022-09-09T03:27:37;9.57;;;4.33;;
2720;SDS011;1368;49.484;11.112;2022-09-09T03:30:02;5.47;;;3.60;;
2720;SDS011;1368;49.484;11.112;2022-09-09T03:32:28;8.43;;;4.07;;
2720;SDS011;1368;49.484;11.112;2022-09-09T03:34:55;9.07;;;4.00;;
2720;SDS011;1368;49.484;11.112;2022-09-09T03:37:21;4.40;;;3.30;;
2720;SDS011;1368;49.484;11.112;2022-09-09T03:39:47;9.57;;;4.07;;
2720;SDS011;1368;49.484;11.112;2022-09-09T03:42:13;6.07;;;4.33;;
2720;SDS011;1368;49.484;11.112;2022-09-09T03:44:39;8.70;;;4.13;;
2720;SDS011;1368;49.484;11.112;2022-09-09T03:47:06;7.63;;;3.87;;
2720;SDS011;1368;49.484;11.112;2022-09-09T03:49:32;5.33;;;3.93;;
2720;SDS011;1368;49.484;11.112;2022-09-09T03:51:58;7.60;;;3.20;;
2720;SDS011;1368;49.484;11.112;2022-09-09T03:54:24;4.47;;;3.40;;
2720;SDS011;1368;49.484;11.112;2022-09-09T03:56:50;5.43;;;3.67;;
2720;SDS011;1368;49.484;11.112;2022-09-09T03:59:16;5.67;;;4.00;;
2720;SDS011;1368;49.484;11.112;2022-09-09T04:01:42;7.00;;;3.80;;
2720;SDS011;1368;49.484;11.112;2022-09-09T04:04:08;6.17;;;3.50;;
2720;SDS011;1368;49.484;11.112;2022-09-09T04:06:34;4.30;;;3.70;;
2720;SDS011;1368;49.484;11.112;2022-09-09T04:09:00;9.23;;;4.50;;
2720;SDS011;1368;49.484;11.112;2022-09-09T04:11:27;9.13;;;3.70;;
2720;SDS011;1368;49.484;11.112;2022-09-09T04:13:53;7.63;;;3.60;;
2720;SDS011;1368;49.484;11.112;2022-09-09T04:16:19;6.97;;;3.87;;
2720;SDS011;1368;49.484;11.112;2022-09-09T04:18:45;5.77;;;4.30;;
2720;SDS011;1368;49.484;11.112;2022-09-09T04:21:10;7.47;;;3.77;;
2720;SDS011;1368;49.484;11.112;2022-09-09T04:23:37;7.63;;;3.70;;
2720;SDS011;1368;49.484;11.112;2022-09-09T04:26:03;6.83;;;3.20;;
2720;SDS011;1368;49.484;11.112;2022-09-09T04:28:30;4.97;;;4.10;;
2720;SDS011;1368;49.484;11.112;2022-09-09T04:31:05;6.40;;;3.57;;
2720;SDS011;1368;49.484;11.112;2022-09-09T04:33:32;6.40;;;3.73;;
2720;SDS011;1368;49.484;11.112;2022-09-09T04:35:58;7.87;;;3.50;;
2720;SDS011;1368;49.484;11.112;2022-09-09T04:38:23;8.53;;;3.90;;
2720;SDS011;1368;49.484;11.112;2022-09-09T04:40:50;6.10;;;3.43;;
2720;SDS011;1368;49.484;11.112;2022-09-09T04:43:16;5.40;;;4.20;;
2720;SDS011;1368;49.484;11.112;2022-09-09T04:45:43;10.40;;;4.80;;
2720;SDS011;1368;49.484;11.112;2022-09-09T04:48:12;4.77;;;3.93;;
2720;SDS011;1368;49.484;11.112;2022-09-09T04:50:38;5.63;;;4.20;;
2720;SDS011;1368;49.484;11.112;2022-09-09T04:53:05;6.10;;;4.10;;
2720;SDS011;1368;49.484;11.112;2022-09-09T04:55:31;4.87;;;4.07;;
2720;SDS011;1368;49.484;11.112;2022-09-09T04:58:02;9.93;;;4.40;;
2720;SDS011;1368;49.484;11.112;2022-09-09T05:00:32;10.77;;;4.70;;
2720;SDS011;1368;49.484;11.112;2022-09-09T05:03:04;11.33;;;4.50;;
2720;SDS011;1368;49.484;11.112;2022-09-09T05:05:30;11.53;;;4.57;;
2720;SDS011;1368;49.484;11.112;2022-09-09T05:08:02;25.53;;;5.10;;
2720;SDS011;1368;49.484;11.112;2022-09-09T05:10:32;6.30;;;3.70;;
2720;SDS011;1368;49.484;11.112;2022-09-09T05:12:59;7.87;;;4.80;;
2720;SDS011;1368;49.484;11.112;2022-09-09T05:15:24;8.57;;;4.07;;
2720;SDS011;1368;49.484;11.112;2022-09-09T05:17:50;9.37;;;4.07;;
2720;SDS011;1368;49.484;11.112;2022-09-09T05:20:18;4.93;;;3.33;;
2720;SDS011;1368;49.484;11.112;2022-09-09T05:22:44;6.07;;;3.97;;
2720;SDS011;1368;49.484;11.112;2022-09-09T05:25:09;8.37;;;4.40;;
2720;SDS011;1368;49.484;11.112;2022-09-09T05:27:35;8.50;;;4.20;;
2720;SDS011;1368;49.484;11.112;2022-09-09T05:30:00;9.03;;;3.57;;
2720;SDS011;1368;49.484;11.112;2022-09-09T05:32:26;5.87;;;4.17;;
2720;SDS011;1368;49.484;11.112;2022-09-09T05:34:52;6.30;;;3.70;;
2720;SDS011;1368;49.484;11.112;2022-09-09T05:37:18;5.60;;;3.63;;
2720;SDS011;1368;49.484;11.112;2022-09-09T05:39:44;6.27;;;4.33;;
2720;SDS011;1368;49.484;11.112;2022-09-09T05:42:09;4.10;;;3.67;;
2720;SDS011;1368;49.484;11.112;2022-09-09T05:44:35;10.90;;;3.90;;
2720;SDS011;1368;49.484;11.112;2022-09-09T05:47:00;6.80;;;3.50;;
2720;SDS011;1368;49.484;11.112;2022-09-09T05:49:26;6.90;;;4.03;;
2720;SDS011;1368;49.484;11.112;2022-09-09T05:51:52;7.77;;;4.00;;
2720;SDS011;1368;49.484;11.112;2022-09-09T05:54:18;5.97;;;3.50;;
2720;SDS011;1368;49.484;11.112;2022-09-09T05:56:43;6.27;;;3.50;;
2720;SDS011;1368;49.484;11.112;2022-09-09T05:59:09;8.30;;;4.00;;
2720;SDS011;1368;49.484;11.112;2022-09-09T06:01:36;7.30;;;3.47;;
2720;SDS011;1368;49.484;11.112;2022-09-09T06:04:05;6.17;;;3.00;;
2720;SDS011;1368;49.484;11.112;2022-09-09T06:06:32;7.50;;;3.17;;
2720;SDS011;1368;49.484;11.112;2022-09-09T06:09:02;5.77;;;3.30;;
2720;SDS011;1368;49.484;11.112;2022-09-09T06:11:31;6.70;;;3.70;;
2720;SDS011;1368;49.484;11.112;2022-09-09T06:13:57;5.60;;;3.70;;
2720;SDS011;1368;49.484;11.112;2022-09-09T06:16:25;7.83;;;4.23;;
2720;SDS011;1368;49.484;11.112;2022-09-09T06:18:52;8.80;;;4.37;;
2720;SDS011;1368;49.484;11.112;2022-09-09T06:21:26;9.23;;;4.27;;
2720;SDS011;1368;49.484;11.112;2022-09-09T06:23:54;5.83;;;4.00;;
2720;SDS011;1368;49.484;11.112;2022-09-09T06:26:23;6.27;;;3.40;;
2720;SDS011;1368;49.484;11.112;2022-09-09T06:28:51;8.57;;;2.97;;
2720;SDS011;1368;49.484;11.112;2022-09-09T06:31:19;6.23;;;3.80;;
2720;SDS011;1368;49.484;11.112;2022-09-09T06:33:46;6.33;;;3.40;;
2720;SDS011;1368;49.484;11.112;2022-09-09T06:36:15;8.43;;;3.60;;
2720;SDS011;1368;49.484;11.112;2022-09-09T06:38:43;7.13;;;3.50;;
2720;SDS011;1368;49.484;11.112;2022-09-09T06:41:09;5.00;;;3.13;;
2720;SDS011;1368;49.484;11.112;2022-09-09T06:43:36;6.53;;;2.80;;
2720;SDS011;1368;49.484;11.112;2022-09-09T06:46:03;7.30;;;3.23;;
2720;SDS011;1368;49.484;11.112;2022-09-09T06:48:34;5.00;;;3.27;;
2720;SDS011;1368;49.484;11.112;2022-09-09T06:51:02;6.33;;;3.40;;
2720;SDS011;1368;49.484;11.112;2022-09-09T06:53:27;9.53;;;4.30;;
2720;SDS011;1368;49.484;11.112;2022-09-09T06:55:54;9.67;;;4.90;;
2720;SDS011;1368;49.484;11.112;2022-09-09T06:58:19;11.97;;;6.17;;
2720;SDS011;1368;49.484;11.112;2022-09-09T07:00:46;9.10;;;6.30;;
2720;SDS011;1368;49.484;11.112;2022-09-09T07:03:13;15.30;;;7.40;;
2720;SDS011;1368;49.484;11.112;2022-09-09T07:05:38;7.63;;;4.77;;
2720;SDS011;1368;49.484;11.112;2022-09-09T07:08:04;5.73;;;4.17;;
2720;SDS011;1368;49.484;11.112;2022-09-09T07:10:30;7.00;;;5.00;;
2720;SDS011;1368;49.484;11.112;2022-09-09T07:12:56;4.53;;;3.07;;
2720;SDS011;1368;49.484;11.112;2022-09-09T07:15:21;4.63;;;3.00;;
2720;SDS011;1368;49.484;11.112;2022-09-09T07:17:47;6.30;;;3.33;;
2720;SDS011;1368;49.484;11.112;2022-09-09T07:20:13;5.27;;;3.30;;
2720;SDS011;1368;49.484;11.112;2022-09-09T07:22:39;6.90;;;3.50;;
2720;SDS011;1368;49.484;11.112;2022-09-09T07:25:05;7.40;;;4.40;;
2720;SDS011;1368;49.484;11.112;2022-09-09T07:27:32;6.63;;;4.50;;
2720;SDS011;1368;49.484;11.112;2022-09-09T07:29:57;4.70;;;3.30;;
2720;SDS011;1368;49.484;11.112;2022-09-09T07:32:23;9.50;;;2.90;;
2720;SDS011;1368;49.484;11.112;2022-09-09T07:34:50;7.20;;;3.30;;
2720;SDS011;1368;49.484;11.112;2022-09-09T07:37:16;6.67;;;3.10;;
2720;SDS011;1368;49.484;11.112;2022-09-09T07:39:42;4.97;;;2.90;;
2720;SDS011;1368;49.484;11.112;2022-09-09T07:42:08;9.23;;;5.10;;
2720;SDS011;1368;49.484;11.112;2022-09-09T07:44:36;8.00;;;6.00;;
2720;SDS011;1368;49.484;11.112;2022-09-09T07:47:04;11.53;;;6.27;;
2720;SDS011;1368;49.484;11.112;2022-09-09T07:49:30;13.27;;;4.50;;
2720;SDS011;1368;49.484;11.112;2022-09-09T07:51:57;6.40;;;2.53;;
2720;SDS011;1368;49.484;11.112;2022-09-09T07:54:23;8.00;;;2.37;;
2720;SDS011;1368;49.484;11.112;2022-09-09T07:56:49;9.50;;;3.00;;
2720;SDS011;1368;49.484;11.112;2022-09-09T07:59:16;4.97;;;2.40;;
2720;SDS011;1368;49.484;11.112;2022-09-09T08:01:43;5.80;;;2.00;;
2720;SDS011;1368;49.484;11.112;2022-09-09T08:04:15;8.67;;;2.40;;
2720;SDS011;1368;49.484;11.112;2022-09-09T08:06:44;4.40;;;2.80;;
2720;SDS011;1368;49.484;11.112;2022-09-09T08:09:23;3.37;;;1.70;;
2720;SDS011;1368;49.484;11.112;2022-09-09T08:11:51;5.00;;;2.53;;
2720;SDS011;1368;49.484;11.112;2022-09-09T08:14:17;4.50;;;2.00;;
2720;SDS011;1368;49.484;11.112;2022-09-09T08:16:44;3.77;;;2.10;;
2720;SDS011;1368;49.484;11.112;2022-09-09T08:19:11;3.40;;;1.87;;
2720;SDS011;1368;49.484;11.112;2022-09-09T08:21:38;6.30;;;2.10;;
2720;SDS011;1368;49.484;11.112;2022-09-09T08:24:05;3.17;;;2.13;;
2720;SDS011;1368;49.484;11.112;2022-09-09T08:26:36;5.10;;;2.00;;
2720;SDS011;1368;49.484;11.112;2022-09-09T08:29:04;6.63;;;2.30;;
2720;SDS011;1368;49.484;11.112;2022-09-09T08:31:35;5.60;;;2.10;;
2720;SDS011;1368;49.484;11.112;2022-09-09T08:34:02;4.60;;;2.00;;
2720;SDS011;1368;49.484;11.112;2022-09-09T08:36:30;3.60;;;1.70;;
2720;SDS011;1368;49.484;11.112;2022-09-09T08:38:58;6.30;;;2.17;;
2720;SDS011;1368;49.484;11.112;2022-09-09T08:41:30;3.37;;;1.57;;
2720;SDS011;1368;49.484;11.112;2022-09-09T08:54:44;3.17;;;1.33;;
2720;SDS011;1368;49.484;11.112;2022-09-09T08:57:12;3.80;;;1.60;;
2720;SDS011;1368;49.484;11.112;2022-09-09T08:59:43;3.53;;;1.30;;
2720;SDS011;1368;49.484;11.112;2022-09-09T09:10:50;5.40;;;1.77;;
2720;SDS011;1368;49.484;11.112;2022-09-09T09:13:20;5.70;;;2.17;;
2720;SDS011;1368;49.484;11.112;2022-09-09T09:15:58;4.67;;;2.33;;
2720;SDS011;1368;49.484;11.112;2022-09-09T09:18:29;5.97;;;1.80;;
2720;SDS011;1368;49.484;11.112;2022-09-09T09:24:01;5.53;;;1.97;;
2720;SDS011;1368;49.484;11.112;2022-09-09T09:26:35;4.90;;;1.97;;
2720;SDS011;1368;49.484;11.112;2022-09-09T09:29:03;4.27;;;1.90;;
2720;SDS011;1368;49.484;11.112;2022-09-09T09:31:36;4.80;;;1.80;;
2720;SDS011;1368;49.484;11.112;2022-09-09T09:34:02;4.00;;;1.60;;
2720;SDS011;1368;49.484;11.112;2022-09-09T09:36:37;6.70;;;1.57;;
2720;SDS011;1368;49.484;11.112;2022-09-09T09:39:21;4.03;;;1.47;;
2720;SDS011;1368;49.484;11.112;2022-09-09T09:41:54;3.63;;;1.80;;
2720;SDS011;1368;49.484;11.112;2022-09-09T09:44:22;5.83;;;2.57;;
2720;SDS011;1368;49.484;11.112;2022-09-09T09:46:48;3.47;;;1.37;;
2720;SDS011;1368;49.484;11.112;2022-09-09T09:49:13;5.87;;;1.10;;
2720;SDS011;1368;49.484;11.112;2022-09-09T09:51:39;4.63;;;1.30;;
2720;SDS011;1368;49.484;11.112;2022-09-09T09:54:09;3.63;;;1.33;;
2720;SDS011;1368;49.484;11.112;2022-09-09T09:56:52;3.40;;;1.63;;
2720;SDS011;1368;49.484;11.112;2022-09-09T10:01:52;3.33;;;1.40;;
2720;SDS011;1368;49.484;11.112;2022-09-09T10:04:19;4.10;;;1.50;;
2720;SDS011;1368;49.484;11.112;2022-09-09T10:06:48;4.00;;;1.70;;
2720;SDS011;1368;49.484;11.112;2022-09-09T10:20:54;3.93;;;1.10;;
2720;SDS011;1368;49.484;11.112;2022-09-09T10:43:01;3.87;;;1.00;;
2720;SDS011;1368;49.484;11.112;2022-09-09T10:45:48;7.47;;;1.30;;
2720;SDS011;1368;49.484;11.112;2022-09-09T10:48:31;5.40;;;1.17;;
2720;SDS011;1368;49.484;11.112;2022-09-09T10:51:14;3.73;;;1.53;;
2720;SDS011;1368;49.484;11.112;2022-09-09T10:54:21;5.80;;;1.60;;
2720;SDS011;1368;49.484;11.112;2022-09-09T10:57:00;3.60;;;1.30;;
2720;SDS011;1368;49.484;11.112;2022-09-09T10:59:40;3.87;;;1.43;;
2720;SDS011;1368;49.484;11.112;2022-09-09T11:04:48;4.23;;;1.63;;
2720;SDS011;1368;49.484;11.112;2022-09-09T11:07:41;3.80;;;1.20;;
2720;SDS011;1368;49.484;11.112;2022-09-09T11:10:34;2.27;;;1.03;;
2720;SDS011;1368;49.484;11.112;2022-09-09T11:13:37;9.10;;;2.20;;
2720;SDS011;1368;49.484;11.112;2022-09-09T11:18:38;2.97;;;1.40;;
2720;SDS011;1368;49.484;11.112;2022-09-09T11:21:11;3.70;;;1.63;;
2720;SDS011;1368;49.484;11.112;2022-09-09T11:23:48;3.57;;;1.10;;
2720;SDS011;1368;49.484;11.112;2022-09-09T11:26:24;4.53;;;1.27;;
2720;SDS011;1368;49.484;11.112;2022-09-09T11:32:00;4.43;;;1.60;;
2720;SDS011;1368;49.484;11.112;2022-09-09T11:34:50;4.73;;;1.13;;
2720;SDS011;1368;49.484;11.112;2022-09-09T11:40:19;10.23;;;1.67;;
2720;SDS011;1368;49.484;11.112;2022-09-09T11:43:00;2.80;;;1.20;;
2720;SDS011;1368;49.484;11.112;2022-09-09T11:45:50;4.33;;;1.50;;
2720;SDS011;1368;49.484;11.112;2022-09-09T11:50:58;5.40;;;1.90;;
2720;SDS011;1368;49.484;11.112;2022-09-09T11:53:28;5.30;;;1.80;;
2720;SDS011;1368;49.484;11.112;2022-09-09T11:56:07;3.10;;;1.40;;
2720;SDS011;1368;49.484;11.112;2022-09-09T11:58:43;3.77;;;1.20;;
2720;SDS011;1368;49.484;11.112;2022-09-09T12:01:29;3.30;;;1.20;;
2720;SDS011;1368;49.484;11.112;2022-09-09T12:06:44;3.90;;;1.10;;
2720;SDS011;1368;49.484;11.112;2022-09-09T12:12:21;3.20;;;1.50;;
2720;SDS011;1368;49.484;11.112;2022-09-09T12:17:23;6.63;;;1.47;;
2720;SDS011;1368;49.484;11.112;2022-09-09T12:22:50;4.20;;;1.10;;
2720;SDS011;1368;49.484;11.112;2022-09-09T12:30:48;4.53;;;2.03;;
2720;SDS011;1368;49.484;11.112;2022-09-09T12:33:32;3.50;;;1.20;;
2720;SDS011;1368;49.484;11.112;2022-09-09T12:36:00;4.47;;;1.33;;
2720;SDS011;1368;49.484;11.112;2022-09-09T12:38:39;3.43;;;1.20;;
2720;SDS011;1368;49.484;11.112;2022-09-09T12:41:06;3.03;;;0.90;;
2720;SDS011;1368;49.484;11.112;2022-09-09T12:43:44;2.60;;;0.97;;
2720;SDS011;1368;49.484;11.112;2022-09-09T12:46:12;2.60;;;0.80;;
2720;SDS011;1368;49.484;11.112;2022-09-09T12:49:01;2.80;;;1.10;;
2720;SDS011;1368;49.484;11.112;2022-09-09T12:51:29;3.03;;;1.20;;
2720;SDS011;1368;49.484;11.112;2022-09-09T12:53:56;3.63;;;1.10;;
2720;SDS011;1368;49.484;11.112;2022-09-09T12:56:26;5.07;;;1.57;;
2720;SDS011;1368;49.484;11.112;2022-09-09T12:58:55;3.87;;;1.10;;
2720;SDS011;1368;49.484;11.112;2022-09-09T13:01:25;5.00;;;1.27;;
2720;SDS011;1368;49.484;11.112;2022-09-09T13:03:51;9.30;;;1.40;;
2720;SDS011;1368;49.484;11.112;2022-09-09T13:06:22;2.80;;;1.03;;
2720;SDS011;1368;49.484;11.112;2022-09-09T13:08:52;3.20;;;1.03;;
2720;SDS011;1368;49.484;11.112;2022-09-09T13:11:20;9.30;;;2.07;;
2720;SDS011;1368;49.484;11.112;2022-09-09T13:13:54;7.40;;;1.47;;
2720;SDS011;1368;49.484;11.112;2022-09-09T13:18:50;7.60;;;2.27;;
2720;SDS011;1368;49.484;11.112;2022-09-09T13:21:16;3.70;;;1.60;;
2720;SDS011;1368;49.484;11.112;2022-09-09T13:23:47;3.70;;;1.00;;
2720;SDS011;1368;49.484;11.112;2022-09-09T13:26:22;2.47;;;1.23;;
2720;SDS011;1368;49.484;11.112;2022-09-09T13:28:52;3.50;;;1.20;;
2720;SDS011;1368;49.484;11.112;2022-09-09T13:31:28;3.33;;;1.33;;
2720;SDS011;1368;49.484;11.112;2022-09-09T13:33:56;2.83;;;1.00;;
2720;SDS011;1368;49.484;11.112;2022-09-09T13:36:29;3.50;;;1.13;;
2720;SDS011;1368;49.484;11.112;2022-09-09T13:38:57;3.87;;;1.20;;
2720;SDS011;1368;49.484;11.112;2022-09-09T13:41:34;3.10;;;1.17;;
2720;SDS011;1368;49.484;11.112;2022-09-09T13:44:01;6.10;;;1.40;;
2720;SDS011;1368;49.484;11.112;2022-09-09T13:49:22;7.20;;;1.70;;
2720;SDS011;1368;49.484;11.112;2022-09-09T13:51:48;5.40;;;1.50;;
2720;SDS011;1368;49.484;11.112;2022-09-09T13:54:28;3.67;;;1.30;;
2720;SDS011;1368;49.484;11.112;2022-09-09T13:56:55;5.30;;;1.30;;
2720;SDS011;1368;49.484;11.112;2022-09-09T13:59:21;3.90;;;0.83;;
2720;SDS011;1368;49.484;11.112;2022-09-09T14:01:47;3.63;;;1.23;;
2720;SDS011;1368;49.484;11.112;2022-09-09T14:04:17;4.37;;;1.43;;
2720;SDS011;1368;49.484;11.112;2022-09-09T14:06:45;6.00;;;1.20;;
2720;SDS011;1368;49.484;11.112;2022-09-09T14:09:13;2.47;;;1.20;;
2720;SDS011;1368;49.484;11.112;2022-09-09T14:11:40;3.27;;;1.17;;
2720;SDS011;1368;49.484;11.112;2022-09-09T14:14:06;2.27;;;0.90;;
2720;SDS011;1368;49.484;11.112;2022-09-09T14:16:33;2.80;;;1.07;;
2720;SDS011;1368;49.484;11.112;2022-09-09T14:18:59;2.90;;;0.77;;
2720;SDS011;1368;49.484;11.112;2022-09-09T14:21:25;3.53;;;0.90;;
2720;SDS011;1368;49.484;11.112;2022-09-09T14:23:52;2.40;;;0.80;;
2720;SDS011;1368;49.484;11.112;2022-09-09T14:26:18;3.30;;;0.83;;
2720;SDS011;1368;49.484;11.112;2022-09-09T14:28:46;4.07;;;1.13;;
2720;SDS011;1368;49.484;11.112;2022-09-09T14:31:12;2.37;;;0.87;;
2720;SDS011;1368;49.484;11.112;2022-09-09T14:33:39;3.37;;;1.30;;
2720;SDS011;1368;49.484;11.112;2022-09-09T14:36:05;4.50;;;1.27;;
2720;SDS011;1368;49.484;11.112;2022-09-09T14:38:32;4.00;;;1.17;;
2720;SDS011;1368;49.484;11.112;2022-09-09T14:41:00;2.27;;;1.10;;
2720;SDS011;1368;49.484;11.112;2022-09-09T14:43:28;2.23;;;0.97;;
2720;SDS011;1368;49.484;11.112;2022-09-09T14:45:54;9.47;;;1.10;;
2720;SDS011;1368;49.484;11.112;2022-09-09T14:48:20;3.70;;;1.13;;
2720;SDS011;1368;49.484;11.112;2022-09-09T14:50:46;4.40;;;1.03;;
2720;SDS011;1368;49.484;11.112;2022-09-09T14:53:11;3.53;;;1.27;;
2720;SDS011;1368;49.484;11.112;2022-09-09T14:55:37;4.10;;;1.60;;
2720;SDS011;1368;49.484;11.112;2022-09-09T14:58:03;3.03;;;1.13;;
2720;SDS011;1368;49.484;11.112;2022-09-09T15:00:31;6.10;;;1.50;;
2720;SDS011;1368;49.484;11.112;2022-09-09T15:02:56;3.70;;;1.53;;
2720;SDS011;1368;49.484;11.112;2022-09-09T15:05:22;4.50;;;1.40;;
2720;SDS011;1368;49.484;11.112;2022-09-09T15:07:49;2.43;;;1.20;;
2720;SDS011;1368;49.484;11.112;2022-09-09T15:10:15;3.50;;;1.60;;
2720;SDS011;1368;49.484;11.112;2022-09-09T15:12:42;4.60;;;1.40;;
2720;SDS011;1368;49.484;11.112;2022-09-09T15:15:08;7.07;;;1.47;;
2720;SDS011;1368;49.484;11.112;2022-09-09T15:17:34;3.97;;;1.13;;
2720;SDS011;1368;49.484;11.112;2022-09-09T15:20:01;5.37;;;1.80;;
2720;SDS011;1368;49.484;11.112;2022-09-09T15:22:27;3.80;;;1.40;;
2720;SDS011;1368;49.484;11.112;2022-09-09T15:24:53;4.33;;;1.37;;
2720;SDS011;1368;49.484;11.112;2022-09-09T15:27:19;5.30;;;1.57;;
2720;SDS011;1368;49.484;11.112;2022-09-09T15:29:45;4.90;;;1.10;;
2720;SDS011;1368;49.484;11.112;2022-09-09T15:32:11;4.43;;;1.30;;
2720;SDS011;1368;49.484;11.112;2022-09-09T15:34:37;3.90;;;1.23;;
2720;SDS011;1368;49.484;11.112;2022-09-09T15:37:02;3.40;;;1.70;;
2720;SDS011;1368;49.484;11.112;2022-09-09T15:39:28;3.53;;;1.20;;
2720;SDS011;1368;49.484;11.112;2022-09-09T15:41:54;5.13;;;1.63;;
2720;SDS011;1368;49.484;11.112;2022-09-09T15:44:19;3.40;;;1.43;;
2720;SDS011;1368;49.484;11.112;2022-09-09T15:46:46;5.07;;;1.90;;
2720;SDS011;1368;49.484;11.112;2022-09-09T15:51:45;5.30;;;1.80;;
2720;SDS011;1368;49.484;11.112;2022-09-09T15:54:16;5.87;;;1.50;;
2720;SDS011;1368;49.484;11.112;2022-09-09T15:56:43;5.43;;;1.53;;
2720;SDS011;1368;49.484;11.112;2022-09-09T15:59:11;3.90;;;1.50;;
2720;SDS011;1368;49.484;11.112;2022-09-09T16:01:37;4.47;;;1.73;;
2720;SDS011;1368;49.484;11.112;2022-09-09T16:04:04;5.20;;;1.50;;
2720;SDS011;1368;49.484;11.112;2022-09-09T16:06:30;7.80;;;1.60;;
2720;SDS011;1368;49.484;11.112;2022-09-09T16:08:56;5.53;;;1.70;;
2720;SDS011;1368;49.484;11.112;2022-09-09T16:11:27;4.00;;;1.43;;
2720;SDS011;1368;49.484;11.112;2022-09-09T16:13:56;4.10;;;1.10;;
2720;SDS011;1368;49.484;11.112;2022-09-09T16:16:23;3.37;;;1.00;;
2720;SDS011;1368;49.484;11.112;2022-09-09T16:18:53;5.13;;;1.17;;
2720;SDS011;1368;49.484;11.112;2022-09-09T16:21:21;3.10;;;0.90;;
2720;SDS011;1368;49.484;11.112;2022-09-09T16:23:49;2.70;;;1.20;;
2720;SDS011;1368;49.484;11.112;2022-09-09T16:26:16;2.33;;;1.20;;
2720;SDS011;1368;49.484;11.112;2022-09-09T16:28:42;3.50;;;1.07;;
2720;SDS011;1368;49.484;11.112;2022-09-09T16:31:09;3.30;;;1.20;;
2720;SDS011;1368;49.484;11.112;2022-09-09T16:33:38;2.07;;;0.80;;
2720;SDS011;1368;49.484;11.112;2022-09-09T16:36:11;1.90;;;0.90;;
2720;SDS011;1368;49.484;11.112;2022-09-09T16:38:41;2.30;;;0.70;;
2720;SDS011;1368;49.484;11.112;2022-09-09T16:41:08;4.90;;;0.90;;
2720;SDS011;1368;49.484;11.112;2022-09-09T16:43:35;4.40;;;1.00;;
2720;SDS011;1368;49.484;11.112;2022-09-09T16:46:12;3.47;;;1.10;;
2720;SDS011;1368;49.484;11.112;2022-09-09T16:48:43;2.53;;;1.10;;
2720;SDS011;1368;49.484;11.112;2022-09-09T16:51:17;4.33;;;1.40;;
2720;SDS011;1368;49.484;11.112;2022-09-09T16:53:50;2.27;;;1.00;;
2720;SDS011;1368;49.484;11.112;2022-09-09T16:56:17;3.40;;;0.90;;
2720;SDS011;1368;49.484;11.112;2022-09-09T16:58:49;2.83;;;0.90;;
2720;SDS011;1368;49.484;11.112;2022-09-09T17:01:16;2.50;;;0.97;;
2720;SDS011;1368;49.484;11.112;2022-09-09T17:03:41;2.93;;;0.90;;
2720;SDS011;1368;49.484;11.112;2022-09-09T17:06:10;4.47;;;2.07;;
2720;SDS011;1368;49.484;11.112;2022-09-09T17:08:38;4.57;;;2.20;;
2720;SDS011;1368;49.484;11.112;2022-09-09T17:11:10;3.83;;;1.60;;
2720;SDS011;1368;49.484;11.112;2022-09-09T17:13:38;3.23;;;1.13;;